sensor_id;sensor_type;location;lat;lon;timestamp;temperature;humidity
33837;DHT22;20140;49.356;8.812;2022-08-19T00:01:37;19.80;99.90
33837;DHT22;20140;49.356;8.812;2022-08-19T00:04:05;19.80;99.90
33837;DHT22;20140;49.356;8.812;2022-08-19T00:06:30;19.70;99.90
33837;DHT22;20140;49.356;8.812;2022-08-19T00:08:56;19.70;99.90
33837;DHT22;20140;49.356;8.812;2022-08-19T00:11:22;19.70;99.90
33837;DHT22;20140;49.356;8.812;2022-08-19T00:13:49;19.70;99.90
33837;DHT22;20140;49.356;8.812;2022-08-19T00:16:15;19.60;99.90
33837;DHT22;20140;49.356;8.812;2022-08-19T00:18:41;19.60;99.90
33837;DHT22;20140;49.356;8.812;2022-08-19T00:21:06;19.60;99.90
33837;DHT22;20140;49.356;8.812;2022-08-19T00:23:32;19.50;99.90
33837;DHT22;20140;49.356;8.812;2022-08-19T00:26:00;19.60;99.90
33837;DHT22;20140;49.356;8.812;2022-08-19T00:28:25;19.60;99.90
33837;DHT22;20140;49.356;8.812;2022-08-19T00:30:50;19.70;99.90
33837;DHT22;20140;49.356;8.812;2022-08-19T00:33:18;19.60;99.90
33837;DHT22;20140;49.356;8.812;2022-08-19T00:35:44;19.60;99.90
33837;DHT22;20140;49.356;8.812;2022-08-19T00:38:09;19.50;99.90
33837;DHT22;20140;49.356;8.812;2022-08-19T00:40:34;19.60;99.90
33837;DHT22;20140;49.356;8.812;2022-08-19T00:43:00;19.60;99.90
33837;DHT22;20140;49.356;8.812;2022-08-19T00:45:26;19.50;99.90
33837;DHT22;20140;49.356;8.812;2022-08-19T00:47:53;19.60;99.90
33837;DHT22;20140;49.356;8.812;2022-08-19T00:50:18;19.60;99.90
33837;DHT22;20140;49.356;8.812;2022-08-19T00:52:47;19.60;99.90
33837;DHT22;20140;49.356;8.812;2022-08-19T00:55:18;19.50;99.90
33837;DHT22;20140;49.356;8.812;2022-08-19T00:57:45;19.60;99.90
33837;DHT22;20140;49.356;8.812;2022-08-19T01:00:14;19.60;99.90
33837;DHT22;20140;49.356;8.812;2022-08-19T01:02:41;19.50;99.90
33837;DHT22;20140;49.356;8.812;2022-08-19T01:05:08;19.50;99.90
33837;DHT22;20140;49.356;8.812;2022-08-19T01:07:34;19.40;99.90
33837;DHT22;20140;49.356;8.812;2022-08-19T01:10:00;19.40;99.90
33837;DHT22;20140;49.356;8.812;2022-08-19T01:12:26;19.40;99.90
33837;DHT22;20140;49.356;8.812;2022-08-19T01:14:52;19.40;99.90
33837;DHT22;20140;49.356;8.812;2022-08-19T01:17:17;19.40;99.90
33837;DHT22;20140;49.356;8.812;2022-08-19T01:19:43;19.40;99.90
33837;DHT22;20140;49.356;8.812;2022-08-19T01:24:48;19.50;99.90
33837;DHT22;20140;49.356;8.812;2022-08-19T01:27:14;19.30;99.90
33837;DHT22;20140;49.356;8.812;2022-08-19T01:29:41;19.40;99.90
33837;DHT22;20140;49.356;8.812;2022-08-19T01:32:07;19.40;99.90
33837;DHT22;20140;49.356;8.812;2022-08-19T01:34:33;19.50;99.90
33837;DHT22;20140;49.356;8.812;2022-08-19T01:36:59;19.50;99.90
33837;DHT22;20140;49.356;8.812;2022-08-19T01:39:27;19.50;99.90
33837;DHT22;20140;49.356;8.812;2022-08-19T01:41:53;19.50;99.90
33837;DHT22;20140;49.356;8.812;2022-08-19T01:44:20;19.40;99.90
33837;DHT22;20140;49.356;8.812;2022-08-19T01:46:49;19.50;99.90
33837;DHT22;20140;49.356;8.812;2022-08-19T01:49:16;19.40;99.90
33837;DHT22;20140;49.356;8.812;2022-08-19T01:51:42;19.40;99.90
33837;DHT22;20140;49.356;8.812;2022-08-19T01:54:08;19.40;99.90
33837;DHT22;20140;49.356;8.812;2022-08-19T01:56:34;19.40;99.90
33837;DHT22;20140;49.356;8.812;2022-08-19T01:59:02;19.40;99.90
33837;DHT22;20140;49.356;8.812;2022-08-19T02:01:28;19.40;99.90
33837;DHT22;20140;49.356;8.812;2022-08-19T02:03:57;19.40;99.90
33837;DHT22;20140;49.356;8.812;2022-08-19T02:06:23;19.40;99.90
33837;DHT22;20140;49.356;8.812;2022-08-19T02:08:48;19.40;99.90
33837;DHT22;20140;49.356;8.812;2022-08-19T02:11:21;19.30;99.90
33837;DHT22;20140;49.356;8.812;2022-08-19T02:13:47;19.30;99.90
33837;DHT22;20140;49.356;8.812;2022-08-19T02:16:15;19.40;99.90
33837;DHT22;20140;49.356;8.812;2022-08-19T02:18:40;19.40;99.90
33837;DHT22;20140;49.356;8.812;2022-08-19T02:21:06;19.40;99.90
33837;DHT22;20140;49.356;8.812;2022-08-19T02:23:32;19.30;99.90
33837;DHT22;20140;49.356;8.812;2022-08-19T02:25:57;19.40;99.90
33837;DHT22;20140;49.356;8.812;2022-08-19T02:28:23;19.40;99.90
33837;DHT22;20140;49.356;8.812;2022-08-19T02:30:48;19.40;99.90
33837;DHT22;20140;49.356;8.812;2022-08-19T02:33:14;19.40;99.90
33837;DHT22;20140;49.356;8.812;2022-08-19T02:35:41;19.40;99.90
33837;DHT22;20140;49.356;8.812;2022-08-19T02:38:06;19.40;99.90
33837;DHT22;20140;49.356;8.812;2022-08-19T02:40:55;19.40;99.90
33837;DHT22;20140;49.356;8.812;2022-08-19T02:43:21;19.40;99.90
33837;DHT22;20140;49.356;8.812;2022-08-19T02:45:47;19.40;99.90
33837;DHT22;20140;49.356;8.812;2022-08-19T02:48:14;19.30;99.90
33837;DHT22;20140;49.356;8.812;2022-08-19T02:50:42;19.30;99.90
33837;DHT22;20140;49.356;8.812;2022-08-19T02:53:08;19.30;99.90
33837;DHT22;20140;49.356;8.812;2022-08-19T02:55:33;19.20;99.90
33837;DHT22;20140;49.356;8.812;2022-08-19T02:57:59;19.30;99.90
33837;DHT22;20140;49.356;8.812;2022-08-19T03:00:25;19.50;99.90
33837;DHT22;20140;49.356;8.812;2022-08-19T03:02:51;19.50;99.90
33837;DHT22;20140;49.356;8.812;2022-08-19T03:05:17;19.70;99.90
33837;DHT22;20140;49.356;8.812;2022-08-19T03:07:42;19.90;99.90
33837;DHT22;20140;49.356;8.812;2022-08-19T03:10:08;20.00;99.90
33837;DHT22;20140;49.356;8.812;2022-08-19T03:12:37;20.10;99.90
33837;DHT22;20140;49.356;8.812;2022-08-19T03:15:04;20.20;99.90
33837;DHT22;20140;49.356;8.812;2022-08-19T03:17:30;20.20;99.90
33837;DHT22;20140;49.356;8.812;2022-08-19T03:19:55;20.30;99.90
33837;DHT22;20140;49.356;8.812;2022-08-19T03:22:21;20.30;99.90
33837;DHT22;20140;49.356;8.812;2022-08-19T03:24:47;20.30;99.90
33837;DHT22;20140;49.356;8.812;2022-08-19T03:27:12;20.30;99.90
33837;DHT22;20140;49.356;8.812;2022-08-19T03:29:39;20.30;99.90
33837;DHT22;20140;49.356;8.812;2022-08-19T03:32:05;20.30;99.90
33837;DHT22;20140;49.356;8.812;2022-08-19T03:34:31;20.30;99.90
33837;DHT22;20140;49.356;8.812;2022-08-19T03:36:57;20.30;99.90
33837;DHT22;20140;49.356;8.812;2022-08-19T03:39:24;20.30;99.90
33837;DHT22;20140;49.356;8.812;2022-08-19T03:41:50;20.30;99.90
33837;DHT22;20140;49.356;8.812;2022-08-19T03:44:18;20.30;99.90
33837;DHT22;20140;49.356;8.812;2022-08-19T03:46:45;20.20;99.90
33837;DHT22;20140;49.356;8.812;2022-08-19T03:49:11;20.20;99.90
33837;DHT22;20140;49.356;8.812;2022-08-19T03:51:37;20.10;99.90
33837;DHT22;20140;49.356;8.812;2022-08-19T03:54:05;20.00;99.90
33837;DHT22;20140;49.356;8.812;2022-08-19T03:56:30;20.00;99.90
33837;DHT22;20140;49.356;8.812;2022-08-19T03:58:56;20.00;99.90
33837;DHT22;20140;49.356;8.812;2022-08-19T04:01:28;20.10;99.90
33837;DHT22;20140;49.356;8.812;2022-08-19T04:03:55;20.20;99.90
33837;DHT22;20140;49.356;8.812;2022-08-19T04:06:23;20.20;99.90
33837;DHT22;20140;49.356;8.812;2022-08-19T04:08:49;20.20;99.90
33837;DHT22;20140;49.356;8.812;2022-08-19T04:11:17;20.20;99.90
33837;DHT22;20140;49.356;8.812;2022-08-19T04:13:43;20.10;99.90
33837;DHT22;20140;49.356;8.812;2022-08-19T04:16:09;20.00;99.90
33837;DHT22;20140;49.356;8.812;2022-08-19T04:18:35;19.90;99.90
33837;DHT22;20140;49.356;8.812;2022-08-19T04:21:01;19.90;99.90
33837;DHT22;20140;49.356;8.812;2022-08-19T04:23:27;19.80;99.90
33837;DHT22;20140;49.356;8.812;2022-08-19T04:25:53;19.80;99.90
33837;DHT22;20140;49.356;8.812;2022-08-19T04:28:19;19.60;99.90
33837;DHT22;20140;49.356;8.812;2022-08-19T04:30:46;19.60;99.90
33837;DHT22;20140;49.356;8.812;2022-08-19T04:33:13;19.60;99.90
33837;DHT22;20140;49.356;8.812;2022-08-19T04:35:41;19.60;99.90
33837;DHT22;20140;49.356;8.812;2022-08-19T04:38:08;19.50;99.90
33837;DHT22;20140;49.356;8.812;2022-08-19T04:40:34;19.40;99.90
33837;DHT22;20140;49.356;8.812;2022-08-19T04:43:18;19.30;99.90
33837;DHT22;20140;49.356;8.812;2022-08-19T04:45:44;19.20;99.90
33837;DHT22;20140;49.356;8.812;2022-08-19T04:48:09;19.30;99.90
33837;DHT22;20140;49.356;8.812;2022-08-19T04:50:35;19.20;99.90
33837;DHT22;20140;49.356;8.812;2022-08-19T04:53:00;19.30;99.90
33837;DHT22;20140;49.356;8.812;2022-08-19T04:55:26;19.20;99.90
33837;DHT22;20140;49.356;8.812;2022-08-19T04:57:51;19.20;99.90
33837;DHT22;20140;49.356;8.812;2022-08-19T05:00:17;19.30;99.90
33837;DHT22;20140;49.356;8.812;2022-08-19T05:02:43;19.30;99.90
33837;DHT22;20140;49.356;8.812;2022-08-19T05:05:08;19.30;99.90
33837;DHT22;20140;49.356;8.812;2022-08-19T05:07:34;19.30;99.90
33837;DHT22;20140;49.356;8.812;2022-08-19T05:09:59;19.50;99.90
33837;DHT22;20140;49.356;8.812;2022-08-19T05:12:25;19.50;99.90
33837;DHT22;20140;49.356;8.812;2022-08-19T05:14:52;19.60;99.90
33837;DHT22;20140;49.356;8.812;2022-08-19T05:17:17;19.60;99.90
33837;DHT22;20140;49.356;8.812;2022-08-19T05:19:42;19.80;99.90
33837;DHT22;20140;49.356;8.812;2022-08-19T05:22:26;19.70;99.90
33837;DHT22;20140;49.356;8.812;2022-08-19T05:25:01;19.80;99.90
33837;DHT22;20140;49.356;8.812;2022-08-19T05:27:27;19.90;99.90
33837;DHT22;20140;49.356;8.812;2022-08-19T05:29:52;19.90;99.90
33837;DHT22;20140;49.356;8.812;2022-08-19T05:32:17;20.00;99.90
33837;DHT22;20140;49.356;8.812;2022-08-19T05:34:43;20.00;99.90
33837;DHT22;20140;49.356;8.812;2022-08-19T05:37:08;20.00;99.90
33837;DHT22;20140;49.356;8.812;2022-08-19T05:39:35;20.10;99.90
33837;DHT22;20140;49.356;8.812;2022-08-19T05:42:03;20.20;99.90
33837;DHT22;20140;49.356;8.812;2022-08-19T05:44:29;20.20;99.90
33837;DHT22;20140;49.356;8.812;2022-08-19T05:46:59;20.30;99.90
33837;DHT22;20140;49.356;8.812;2022-08-19T05:49:25;20.40;99.90
33837;DHT22;20140;49.356;8.812;2022-08-19T05:51:51;20.40;99.90
33837;DHT22;20140;49.356;8.812;2022-08-19T05:54:17;20.50;99.90
33837;DHT22;20140;49.356;8.812;2022-08-19T05:56:42;20.50;99.90
33837;DHT22;20140;49.356;8.812;2022-08-19T05:59:09;20.50;99.90
33837;DHT22;20140;49.356;8.812;2022-08-19T06:01:40;20.60;99.90
33837;DHT22;20140;49.356;8.812;2022-08-19T06:04:05;20.60;99.90
33837;DHT22;20140;49.356;8.812;2022-08-19T06:06:32;20.60;99.90
33837;DHT22;20140;49.356;8.812;2022-08-19T06:09:05;20.60;99.90
33837;DHT22;20140;49.356;8.812;2022-08-19T06:14:04;20.60;99.90
33837;DHT22;20140;49.356;8.812;2022-08-19T06:19:20;20.40;99.90
33837;DHT22;20140;49.356;8.812;2022-08-19T06:21:47;20.40;99.90
33837;DHT22;20140;49.356;8.812;2022-08-19T06:24:15;20.60;99.90
33837;DHT22;20140;49.356;8.812;2022-08-19T06:26:42;20.60;99.90
33837;DHT22;20140;49.356;8.812;2022-08-19T06:29:08;20.60;99.90
33837;DHT22;20140;49.356;8.812;2022-08-19T06:31:35;20.70;99.90
33837;DHT22;20140;49.356;8.812;2022-08-19T06:34:02;20.70;99.90
33837;DHT22;20140;49.356;8.812;2022-08-19T06:36:29;21.00;99.90
33837;DHT22;20140;49.356;8.812;2022-08-19T06:39:06;21.00;99.90
33837;DHT22;20140;49.356;8.812;2022-08-19T06:41:34;20.90;99.90
33837;DHT22;20140;49.356;8.812;2022-08-19T06:44:00;20.90;99.90
33837;DHT22;20140;49.356;8.812;2022-08-19T06:46:25;20.90;99.90
33837;DHT22;20140;49.356;8.812;2022-08-19T06:48:51;21.00;99.90
33837;DHT22;20140;49.356;8.812;2022-08-19T06:51:18;21.00;99.90
33837;DHT22;20140;49.356;8.812;2022-08-19T06:56:44;21.10;99.90
33837;DHT22;20140;49.356;8.812;2022-08-19T06:59:12;21.20;99.90
33837;DHT22;20140;49.356;8.812;2022-08-19T07:01:39;21.20;99.90
33837;DHT22;20140;49.356;8.812;2022-08-19T07:04:06;21.20;99.90
33837;DHT22;20140;49.356;8.812;2022-08-19T07:06:32;21.20;99.90
33837;DHT22;20140;49.356;8.812;2022-08-19T07:08:57;21.20;99.90
33837;DHT22;20140;49.356;8.812;2022-08-19T07:11:23;21.20;99.90
33837;DHT22;20140;49.356;8.812;2022-08-19T07:13:48;21.30;99.90
33837;DHT22;20140;49.356;8.812;2022-08-19T07:16:16;21.30;99.90
33837;DHT22;20140;49.356;8.812;2022-08-19T07:18:41;21.10;99.90
33837;DHT22;20140;49.356;8.812;2022-08-19T07:21:11;21.20;99.90
33837;DHT22;20140;49.356;8.812;2022-08-19T07:23:36;21.30;99.90
33837;DHT22;20140;49.356;8.812;2022-08-19T07:26:09;21.30;99.90
33837;DHT22;20140;49.356;8.812;2022-08-19T07:28:35;21.30;99.90
33837;DHT22;20140;49.356;8.812;2022-08-19T07:31:07;21.50;99.90
33837;DHT22;20140;49.356;8.812;2022-08-19T07:33:33;21.70;99.90
33837;DHT22;20140;49.356;8.812;2022-08-19T07:36:05;21.60;99.90
33837;DHT22;20140;49.356;8.812;2022-08-19T07:38:31;21.60;99.90
33837;DHT22;20140;49.356;8.812;2022-08-19T07:40:57;21.60;99.90
33837;DHT22;20140;49.356;8.812;2022-08-19T07:43:22;21.50;99.90
33837;DHT22;20140;49.356;8.812;2022-08-19T07:45:51;21.50;99.90
33837;DHT22;20140;49.356;8.812;2022-08-19T07:48:16;21.50;99.90
33837;DHT22;20140;49.356;8.812;2022-08-19T07:50:42;21.50;99.90
33837;DHT22;20140;49.356;8.812;2022-08-19T07:53:07;21.50;99.90
33837;DHT22;20140;49.356;8.812;2022-08-19T07:55:33;21.60;99.90
33837;DHT22;20140;49.356;8.812;2022-08-19T08:01:03;21.70;99.90
33837;DHT22;20140;49.356;8.812;2022-08-19T08:03:29;21.80;99.90
33837;DHT22;20140;49.356;8.812;2022-08-19T08:06:14;21.90;99.90
33837;DHT22;20140;49.356;8.812;2022-08-19T08:08:58;21.90;99.90
33837;DHT22;20140;49.356;8.812;2022-08-19T08:11:36;22.10;99.90
33837;DHT22;20140;49.356;8.812;2022-08-19T08:14:02;22.20;99.90
33837;DHT22;20140;49.356;8.812;2022-08-19T08:16:28;22.30;99.90
33837;DHT22;20140;49.356;8.812;2022-08-19T08:18:56;22.30;99.90
33837;DHT22;20140;49.356;8.812;2022-08-19T08:21:22;22.50;99.90
33837;DHT22;20140;49.356;8.812;2022-08-19T08:23:47;22.60;99.90
33837;DHT22;20140;49.356;8.812;2022-08-19T08:26:13;22.80;99.90
33837;DHT22;20140;49.356;8.812;2022-08-19T08:28:40;22.80;99.90
33837;DHT22;20140;49.356;8.812;2022-08-19T08:31:10;23.00;99.90
33837;DHT22;20140;49.356;8.812;2022-08-19T08:33:36;22.90;99.90
33837;DHT22;20140;49.356;8.812;2022-08-19T08:36:02;22.90;99.90
33837;DHT22;20140;49.356;8.812;2022-08-19T08:38:30;23.00;99.90
33837;DHT22;20140;49.356;8.812;2022-08-19T08:40:58;23.10;99.90
33837;DHT22;20140;49.356;8.812;2022-08-19T08:43:29;23.10;99.90
33837;DHT22;20140;49.356;8.812;2022-08-19T08:46:00;23.20;99.90
33837;DHT22;20140;49.356;8.812;2022-08-19T08:48:56;23.20;99.90
33837;DHT22;20140;49.356;8.812;2022-08-19T08:51:24;23.40;99.90
33837;DHT22;20140;49.356;8.812;2022-08-19T08:53:51;23.20;99.90
33837;DHT22;20140;49.356;8.812;2022-08-19T08:56:22;23.10;99.90
33837;DHT22;20140;49.356;8.812;2022-08-19T08:58:54;23.20;99.90
33837;DHT22;20140;49.356;8.812;2022-08-19T09:01:21;23.50;99.90
33837;DHT22;20140;49.356;8.812;2022-08-19T09:03:47;23.60;99.90
33837;DHT22;20140;49.356;8.812;2022-08-19T09:09:04;23.90;99.90
33837;DHT22;20140;49.356;8.812;2022-08-19T09:16:59;23.90;99.90
33837;DHT22;20140;49.356;8.812;2022-08-19T09:19:27;24.00;99.90
33837;DHT22;20140;49.356;8.812;2022-08-19T09:21:53;24.30;99.90
33837;DHT22;20140;49.356;8.812;2022-08-19T09:24:19;24.10;99.90
33837;DHT22;20140;49.356;8.812;2022-08-19T09:26:44;24.10;99.90
33837;DHT22;20140;49.356;8.812;2022-08-19T09:29:11;24.00;99.90
33837;DHT22;20140;49.356;8.812;2022-08-19T09:31:36;24.00;99.90
33837;DHT22;20140;49.356;8.812;2022-08-19T09:34:02;24.00;99.90
33837;DHT22;20140;49.356;8.812;2022-08-19T09:36:31;24.00;99.90
33837;DHT22;20140;49.356;8.812;2022-08-19T09:39:05;24.20;99.90
33837;DHT22;20140;49.356;8.812;2022-08-19T09:41:31;24.30;99.90
33837;DHT22;20140;49.356;8.812;2022-08-19T09:43:58;24.40;99.90
33837;DHT22;20140;49.356;8.812;2022-08-19T09:46:24;24.40;99.90
33837;DHT22;20140;49.356;8.812;2022-08-19T09:48:51;24.70;99.90
33837;DHT22;20140;49.356;8.812;2022-08-19T09:51:19;24.80;99.90
33837;DHT22;20140;49.356;8.812;2022-08-19T09:53:45;24.90;99.90
33837;DHT22;20140;49.356;8.812;2022-08-19T09:56:11;25.20;99.90
33837;DHT22;20140;49.356;8.812;2022-08-19T09:58:37;25.30;99.90
33837;DHT22;20140;49.356;8.812;2022-08-19T10:01:03;25.20;99.90
33837;DHT22;20140;49.356;8.812;2022-08-19T10:03:29;25.40;99.90
33837;DHT22;20140;49.356;8.812;2022-08-19T10:05:55;25.50;99.90
33837;DHT22;20140;49.356;8.812;2022-08-19T10:08:22;25.60;99.90
33837;DHT22;20140;49.356;8.812;2022-08-19T10:10:49;25.60;99.90
33837;DHT22;20140;49.356;8.812;2022-08-19T10:13:16;25.80;99.90
33837;DHT22;20140;49.356;8.812;2022-08-19T10:15:42;25.60;99.90
33837;DHT22;20140;49.356;8.812;2022-08-19T10:18:08;25.80;99.90
33837;DHT22;20140;49.356;8.812;2022-08-19T10:20:33;25.70;99.90
33837;DHT22;20140;49.356;8.812;2022-08-19T10:26:04;25.60;99.90
33837;DHT22;20140;49.356;8.812;2022-08-19T10:28:32;26.00;99.90
33837;DHT22;20140;49.356;8.812;2022-08-19T10:30:57;26.10;99.90
33837;DHT22;20140;49.356;8.812;2022-08-19T10:33:22;25.80;99.90
33837;DHT22;20140;49.356;8.812;2022-08-19T10:35:58;25.70;99.90
33837;DHT22;20140;49.356;8.812;2022-08-19T10:38:24;25.60;99.90
33837;DHT22;20140;49.356;8.812;2022-08-19T10:40:50;26.00;99.90
33837;DHT22;20140;49.356;8.812;2022-08-19T10:43:15;25.90;99.90
33837;DHT22;20140;49.356;8.812;2022-08-19T10:45:41;25.80;99.90
33837;DHT22;20140;49.356;8.812;2022-08-19T10:48:07;25.60;99.90
33837;DHT22;20140;49.356;8.812;2022-08-19T10:50:32;25.30;99.90
33837;DHT22;20140;49.356;8.812;2022-08-19T10:53:17;25.60;99.90
33837;DHT22;20140;49.356;8.812;2022-08-19T10:55:44;25.90;99.90
33837;DHT22;20140;49.356;8.812;2022-08-19T10:58:28;26.00;99.90
33837;DHT22;20140;49.356;8.812;2022-08-19T11:00:54;26.10;99.90
33837;DHT22;20140;49.356;8.812;2022-08-19T11:03:20;26.20;99.90
33837;DHT22;20140;49.356;8.812;2022-08-19T11:05:46;26.30;99.90
33837;DHT22;20140;49.356;8.812;2022-08-19T11:08:11;25.60;99.90
33837;DHT22;20140;49.356;8.812;2022-08-19T11:10:40;25.60;99.90
33837;DHT22;20140;49.356;8.812;2022-08-19T11:13:06;25.90;99.90
33837;DHT22;20140;49.356;8.812;2022-08-19T11:15:31;26.20;99.60
33837;DHT22;20140;49.356;8.812;2022-08-19T11:17:58;26.10;99.70
33837;DHT22;20140;49.356;8.812;2022-08-19T11:20:24;26.20;99.20
33837;DHT22;20140;49.356;8.812;2022-08-19T11:22:50;26.10;98.70
33837;DHT22;20140;49.356;8.812;2022-08-19T11:25:16;26.00;98.70
33837;DHT22;20140;49.356;8.812;2022-08-19T11:27:41;26.10;98.80
33837;DHT22;20140;49.356;8.812;2022-08-19T11:30:08;26.20;99.00
33837;DHT22;20140;49.356;8.812;2022-08-19T11:32:34;26.20;98.80
33837;DHT22;20140;49.356;8.812;2022-08-19T11:34:59;26.50;98.20
33837;DHT22;20140;49.356;8.812;2022-08-19T11:37:25;26.40;98.00
33837;DHT22;20140;49.356;8.812;2022-08-19T11:39:50;26.60;97.60
33837;DHT22;20140;49.356;8.812;2022-08-19T11:42:15;26.30;97.80
33837;DHT22;20140;49.356;8.812;2022-08-19T11:45:00;26.30;97.40
33837;DHT22;20140;49.356;8.812;2022-08-19T11:47:29;26.60;97.30
33837;DHT22;20140;49.356;8.812;2022-08-19T11:49:55;26.30;97.00
33837;DHT22;20140;49.356;8.812;2022-08-19T11:52:21;26.60;96.80
33837;DHT22;20140;49.356;8.812;2022-08-19T11:54:46;26.90;96.90
33837;DHT22;20140;49.356;8.812;2022-08-19T11:57:12;27.50;95.80
33837;DHT22;20140;49.356;8.812;2022-08-19T11:59:39;27.30;95.50
33837;DHT22;20140;49.356;8.812;2022-08-19T12:02:05;27.40;95.60
33837;DHT22;20140;49.356;8.812;2022-08-19T12:04:30;27.10;95.70
33837;DHT22;20140;49.356;8.812;2022-08-19T12:06:56;26.80;95.60
33837;DHT22;20140;49.356;8.812;2022-08-19T12:09:21;26.80;95.80
33837;DHT22;20140;49.356;8.812;2022-08-19T12:11:47;27.00;95.90
33837;DHT22;20140;49.356;8.812;2022-08-19T12:14:13;27.40;95.30
33837;DHT22;20140;49.356;8.812;2022-08-19T12:16:39;27.70;95.10
33837;DHT22;20140;49.356;8.812;2022-08-19T12:19:06;27.80;94.50
33837;DHT22;20140;49.356;8.812;2022-08-19T12:21:32;27.70;94.70
33837;DHT22;20140;49.356;8.812;2022-08-19T12:23:58;28.00;94.10
33837;DHT22;20140;49.356;8.812;2022-08-19T12:26:25;27.70;93.60
33837;DHT22;20140;49.356;8.812;2022-08-19T12:28:51;27.80;93.70
33837;DHT22;20140;49.356;8.812;2022-08-19T12:31:16;27.60;93.80
33837;DHT22;20140;49.356;8.812;2022-08-19T12:33:43;27.90;92.80
33837;DHT22;20140;49.356;8.812;2022-08-19T12:36:09;27.50;92.80
33837;DHT22;20140;49.356;8.812;2022-08-19T12:38:35;27.60;93.00
33837;DHT22;20140;49.356;8.812;2022-08-19T12:41:01;27.90;92.50
33837;DHT22;20140;49.356;8.812;2022-08-19T12:43:31;28.20;92.40
33837;DHT22;20140;49.356;8.812;2022-08-19T12:45:57;28.00;92.70
33837;DHT22;20140;49.356;8.812;2022-08-19T12:48:22;27.90;92.50
33837;DHT22;20140;49.356;8.812;2022-08-19T12:50:48;27.80;92.50
33837;DHT22;20140;49.356;8.812;2022-08-19T12:53:14;27.60;92.10
33837;DHT22;20140;49.356;8.812;2022-08-19T12:55:39;27.50;91.70
33837;DHT22;20140;49.356;8.812;2022-08-19T12:58:05;27.70;91.60
33837;DHT22;20140;49.356;8.812;2022-08-19T13:00:30;27.90;90.30
33837;DHT22;20140;49.356;8.812;2022-08-19T13:02:58;28.30;90.30
33837;DHT22;20140;49.356;8.812;2022-08-19T13:05:24;28.90;89.00
33837;DHT22;20140;49.356;8.812;2022-08-19T13:07:51;29.00;88.20
33837;DHT22;20140;49.356;8.812;2022-08-19T13:10:18;28.40;90.20
33837;DHT22;20140;49.356;8.812;2022-08-19T13:12:45;28.20;90.50
33837;DHT22;20140;49.356;8.812;2022-08-19T13:15:12;28.30;90.00
33837;DHT22;20140;49.356;8.812;2022-08-19T13:17:38;28.50;90.30
33837;DHT22;20140;49.356;8.812;2022-08-19T13:20:04;28.50;88.50
33837;DHT22;20140;49.356;8.812;2022-08-19T13:22:32;29.00;86.50
33837;DHT22;20140;49.356;8.812;2022-08-19T13:24:58;29.40;85.70
33837;DHT22;20140;49.356;8.812;2022-08-19T13:27:23;28.80;85.40
33837;DHT22;20140;49.356;8.812;2022-08-19T13:29:48;29.20;83.60
33837;DHT22;20140;49.356;8.812;2022-08-19T13:32:33;29.60;82.70
33837;DHT22;20140;49.356;8.812;2022-08-19T13:35:17;29.70;82.60
33837;DHT22;20140;49.356;8.812;2022-08-19T13:37:45;29.30;83.30
33837;DHT22;20140;49.356;8.812;2022-08-19T13:40:12;29.60;82.50
33837;DHT22;20140;49.356;8.812;2022-08-19T13:42:41;29.50;79.20
33837;DHT22;20140;49.356;8.812;2022-08-19T13:45:07;29.40;80.00
33837;DHT22;20140;49.356;8.812;2022-08-19T13:47:33;28.60;81.50
33837;DHT22;20140;49.356;8.812;2022-08-19T13:50:11;28.50;82.40
33837;DHT22;20140;49.356;8.812;2022-08-19T13:52:37;29.40;82.20
33837;DHT22;20140;49.356;8.812;2022-08-19T13:55:03;28.70;81.50
33837;DHT22;20140;49.356;8.812;2022-08-19T13:57:29;28.50;81.90
33837;DHT22;20140;49.356;8.812;2022-08-19T13:59:55;29.00;79.90
33837;DHT22;20140;49.356;8.812;2022-08-19T14:02:20;29.20;79.40
33837;DHT22;20140;49.356;8.812;2022-08-19T14:04:46;28.60;79.40
33837;DHT22;20140;49.356;8.812;2022-08-19T14:07:11;28.70;79.70
33837;DHT22;20140;49.356;8.812;2022-08-19T14:09:37;28.60;80.20
33837;DHT22;20140;49.356;8.812;2022-08-19T14:12:02;29.10;79.50
33837;DHT22;20140;49.356;8.812;2022-08-19T14:14:29;28.80;77.60
33837;DHT22;20140;49.356;8.812;2022-08-19T14:16:54;28.60;78.50
33837;DHT22;20140;49.356;8.812;2022-08-19T14:19:20;29.00;77.70
33837;DHT22;20140;49.356;8.812;2022-08-19T14:21:46;28.80;77.10
33837;DHT22;20140;49.356;8.812;2022-08-19T14:24:12;28.80;76.90
33837;DHT22;20140;49.356;8.812;2022-08-19T14:26:37;29.00;76.70
33837;DHT22;20140;49.356;8.812;2022-08-19T14:29:03;29.30;75.80
33837;DHT22;20140;49.356;8.812;2022-08-19T14:31:29;29.70;73.50
33837;DHT22;20140;49.356;8.812;2022-08-19T14:33:54;29.60;74.70
33837;DHT22;20140;49.356;8.812;2022-08-19T14:36:20;29.70;74.80
33837;DHT22;20140;49.356;8.812;2022-08-19T14:38:46;29.50;73.40
33837;DHT22;20140;49.356;8.812;2022-08-19T14:41:14;29.30;73.80
33837;DHT22;20140;49.356;8.812;2022-08-19T14:43:41;29.40;72.70
33837;DHT22;20140;49.356;8.812;2022-08-19T14:46:07;28.90;73.60
33837;DHT22;20140;49.356;8.812;2022-08-19T14:48:33;28.90;72.70
33837;DHT22;20140;49.356;8.812;2022-08-19T14:50:58;28.90;72.90
33837;DHT22;20140;49.356;8.812;2022-08-19T14:53:24;28.80;73.60
33837;DHT22;20140;49.356;8.812;2022-08-19T14:55:49;28.80;74.10
33837;DHT22;20140;49.356;8.812;2022-08-19T14:58:15;28.50;75.50
33837;DHT22;20140;49.356;8.812;2022-08-19T15:00:40;28.40;76.70
33837;DHT22;20140;49.356;8.812;2022-08-19T15:03:06;28.40;76.80
33837;DHT22;20140;49.356;8.812;2022-08-19T15:05:31;28.30;77.50
33837;DHT22;20140;49.356;8.812;2022-08-19T15:07:57;28.20;77.40
33837;DHT22;20140;49.356;8.812;2022-08-19T15:10:23;28.20;78.10
33837;DHT22;20140;49.356;8.812;2022-08-19T15:12:49;28.10;78.40
33837;DHT22;20140;49.356;8.812;2022-08-19T15:15:16;28.20;78.90
33837;DHT22;20140;49.356;8.812;2022-08-19T15:17:45;28.10;78.90
33837;DHT22;20140;49.356;8.812;2022-08-19T15:20:12;28.10;77.30
33837;DHT22;20140;49.356;8.812;2022-08-19T15:22:38;28.30;75.90
33837;DHT22;20140;49.356;8.812;2022-08-19T15:25:05;28.30;76.10
33837;DHT22;20140;49.356;8.812;2022-08-19T15:27:31;28.30;75.70
33837;DHT22;20140;49.356;8.812;2022-08-19T15:29:56;27.90;76.10
33837;DHT22;20140;49.356;8.812;2022-08-19T15:32:22;27.80;77.00
33837;DHT22;20140;49.356;8.812;2022-08-19T15:34:48;27.70;77.30
33837;DHT22;20140;49.356;8.812;2022-08-19T15:37:13;27.90;77.20
33837;DHT22;20140;49.356;8.812;2022-08-19T15:39:39;27.90;76.10
33837;DHT22;20140;49.356;8.812;2022-08-19T15:42:04;27.90;75.70
33837;DHT22;20140;49.356;8.812;2022-08-19T15:44:30;27.90;76.10
33837;DHT22;20140;49.356;8.812;2022-08-19T15:46:56;27.90;75.20
33837;DHT22;20140;49.356;8.812;2022-08-19T15:49:21;27.90;76.60
33837;DHT22;20140;49.356;8.812;2022-08-19T15:51:47;27.80;75.80
33837;DHT22;20140;49.356;8.812;2022-08-19T15:54:15;27.80;74.90